Time;durP1;ratioP1;P1;durP2;ratioP2;P2;SDS_P1;SDS_P2;PMS_P1;PMS_P2;Temp;Humidity;BMP_temperature;BMP_pressure;BME280_temperature;BME280_humidity;BME280_pressure;Samples;Min_cycle;Max_cycle;Signal;HPM_P1;HPM_P2
2023/04/17 00:00:42;;;;;;;2.20;2.00;;;11.60;74.20;;;;;;5026615;28;20022;-60
2023/04/17 00:03:12;;;;;;;3.70;1.73;;;11.60;74.10;;;;;;5024762;28;20080;-61
2023/04/17 00:05:38;;;;;;;2.08;1.90;;;11.60;74.10;;;;;;5017081;28;20034;-60
2023/04/17 00:08:04;;;;;;;2.83;2.20;;;11.70;74.20;;;;;;5047110;28;20040;-61
2023/04/17 00:10:30;;;;;;;2.17;1.88;;;11.70;74.30;;;;;;5022910;28;20015;-59
2023/04/17 00:12:56;;;;;;;2.10;1.90;;;11.60;74.20;;;;;;5034788;28;20117;-60
2023/04/17 00:15:22;;;;;;;3.20;1.90;;;11.70;74.30;;;;;;5030850;28;20026;-60
2023/04/17 00:17:47;;;;;;;2.03;1.90;;;11.70;74.40;;;;;;5024944;28;20068;-59
2023/04/17 00:20:13;;;;;;;2.03;1.85;;;11.70;74.40;;;;;;5029758;28;20056;-61
2023/04/17 00:22:39;;;;;;;2.33;1.90;;;11.70;74.40;;;;;;5026531;28;20153;-60
2023/04/17 00:25:06;;;;;;;1.83;1.70;;;11.70;74.40;;;;;;5025138;28;20022;-59
2023/04/17 00:27:31;;;;;;;1.70;1.60;;;11.70;74.40;;;;;;5022821;28;20033;-60
2023/04/17 00:29:57;;;;;;;7.75;1.55;;;11.70;74.20;;;;;;5016607;28;20030;-61
2023/04/17 00:32:23;;;;;;;4.90;1.67;;;11.70;74.20;;;;;;5022341;28;20053;-62
2023/04/17 00:34:51;;;;;;;2.38;1.42;;;11.70;74.20;;;;;;5055829;28;20037;-61
2023/04/17 00:37:17;;;;;;;1.50;1.40;;;11.70;74.20;;;;;;5021467;28;20109;-62
2023/04/17 00:39:43;;;;;;;1.77;1.67;;;11.70;74.20;;;;;;5025898;28;20034;-61
2023/04/17 00:42:08;;;;;;;1.67;1.58;;;11.70;74.20;;;;;;5024675;28;20085;-59
2023/04/17 00:44:34;;;;;;;1.95;1.75;;;11.70;74.20;;;;;;5021190;28;20381;-60
2023/04/17 00:47:00;;;;;;;1.67;1.58;;;11.70;73.90;;;;;;5013140;28;20373;-61
2023/04/17 00:49:26;;;;;;;2.10;1.50;;;11.70;73.90;;;;;;5020949;28;20061;-60
2023/04/17 00:51:52;;;;;;;2.75;1.40;;;11.70;73.80;;;;;;5017000;28;20023;-60
2023/04/17 00:54:21;;;;;;;1.63;1.52;;;11.70;73.80;;;;;;5029106;28;20472;-60
2023/04/17 00:56:48;;;;;;;1.65;1.42;;;11.60;73.80;;;;;;5017004;28;20053;-60
2023/04/17 00:59:16;;;;;;;2.08;1.48;;;11.60;73.80;;;;;;5023612;28;20026;-60
2023/04/17 01:01:42;;;;;;;1.77;1.67;;;11.60;73.90;;;;;;5025181;28;20049;-61
2023/04/17 01:04:08;;;;;;;2.92;1.60;;;11.60;74.00;;;;;;5018960;28;20041;-61
2023/04/17 01:06:35;;;;;;;1.50;1.40;;;11.60;74.10;;;;;;5019237;28;20090;-61
2023/04/17 01:09:01;;;;;;;3.10;1.70;;;11.60;74.10;;;;;;5031525;28;20068;-60
2023/04/17 01:11:27;;;;;;;1.20;1.10;;;11.60;74.10;;;;;;5027214;28;20444;-61
2023/04/17 01:13:53;;;;;;;1.60;1.50;;;11.60;74.10;;;;;;5021520;28;20091;-60
2023/04/17 01:16:19;;;;;;;1.50;1.40;;;11.60;74.10;;;;;;5027734;28;20113;-60
2023/04/17 01:18:47;;;;;;;2.35;1.70;;;11.60;74.10;;;;;;5019974;28;20038;-60
2023/04/17 01:21:13;;;;;;;2.20;1.60;;;11.60;74.10;;;;;;5026015;28;20022;-60
2023/04/17 01:23:53;;;;;;;4.18;1.95;;;11.60;74.00;;;;;;5025021;28;20034;-60
2023/04/17 01:26:22;;;;;;;1.95;1.85;;;11.60;74.10;;;;;;5021587;28;20044;-60
2023/04/17 01:28:52;;;;;;;2.25;1.77;;;11.60;73.80;;;;;;5025555;28;20083;-62
2023/04/17 01:31:18;;;;;;;2.05;1.85;;;11.60;73.90;;;;;;5037310;28;20030;-60
2023/04/17 01:33:43;;;;;;;2.00;1.80;;;11.60;73.90;;;;;;5023936;28;20072;-61
2023/04/17 01:36:09;;;;;;;1.83;1.73;;;11.60;73.90;;;;;;5028978;28;20029;-60
2023/04/17 01:38:34;;;;;;;2.42;1.92;;;11.60;73.90;;;;;;5025497;28;20746;-62
2023/04/17 01:41:08;;;;;;;2.22;2.03;;;11.60;73.70;;;;;;5026124;28;20096;-61
2023/04/17 01:43:37;;;;;;;2.30;1.73;;;11.60;73.70;;;;;;5024729;28;20040;-60
2023/04/17 01:46:03;;;;;;;2.33;2.13;;;11.60;73.50;;;;;;5026433;28;20065;-60
2023/04/17 01:48:29;;;;;;;2.60;2.40;;;11.60;73.20;;;;;;5028246;28;20033;-62
2023/04/17 01:50:54;;;;;;;2.95;2.58;;;11.60;73.30;;;;;;5028441;28;20022;-62
2023/04/17 01:53:20;;;;;;;3.28;2.33;;;11.50;73.40;;;;;;5037758;28;20412;-61
2023/04/17 01:55:46;;;;;;;2.88;2.58;;;11.50;73.60;;;;;;5028360;28;20746;-61
2023/04/17 01:58:11;;;;;;;2.72;2.53;;;11.50;73.60;;;;;;5032591;28;20029;-61
2023/04/17 02:00:37;;;;;;;2.60;2.40;;;11.50;73.80;;;;;;5027973;28;20547;-60
2023/04/17 02:03:04;;;;;;;5.15;2.78;;;11.50;73.90;;;;;;5029301;28;20034;-60
2023/04/17 02:05:30;;;;;;;2.60;2.40;;;11.50;74.00;;;;;;5027713;28;20033;-61
2023/04/17 02:07:56;;;;;;;2.67;2.47;;;11.50;74.00;;;;;;5027165;28;20069;-60
2023/04/17 02:10:21;;;;;;;2.85;2.63;;;11.50;74.00;;;;;;5046746;28;20038;-60
2023/04/17 02:12:47;;;;;;;2.70;2.45;;;11.50;73.80;;;;;;5017624;28;20034;-60
2023/04/17 02:15:13;;;;;;;3.70;2.80;;;11.50;73.80;;;;;;5020167;28;20137;-61
2023/04/17 02:17:38;;;;;;;3.20;2.67;;;11.50;73.80;;;;;;5045570;28;20107;-60
2023/04/17 02:20:06;;;;;;;3.22;2.92;;;11.50;73.90;;;;;;5026820;28;20033;-60
2023/04/17 02:22:32;;;;;;;5.28;2.97;;;11.50;74.00;;;;;;5027566;28;20018;-60
2023/04/17 02:24:57;;;;;;;3.08;2.78;;;11.50;74.00;;;;;;5025605;28;20061;-59
2023/04/17 02:27:23;;;;;;;3.72;3.35;;;11.50;74.00;;;;;;5030552;28;20033;-61
2023/04/17 02:29:48;;;;;;;3.83;3.42;;;11.50;74.00;;;;;;5033789;28;20037;-61
2023/04/17 02:32:15;;;;;;;7.45;3.63;;;11.50;74.00;;;;;;5020299;28;20022;-62
2023/04/17 02:34:41;;;;;;;4.55;3.40;;;11.50;74.00;;;;;;5054382;28;20063;-60
2023/04/17 02:37:07;;;;;;;3.88;3.40;;;11.50;74.00;;;;;;5029539;28;20052;-61
2023/04/17 02:39:34;;;;;;;4.30;3.85;;;11.50;74.00;;;;;;5029778;28;20026;-61
2023/04/17 02:42:02;;;;;;;5.15;3.65;;;11.50;73.90;;;;;;4989379;28;20133;-60
2023/04/17 02:44:28;;;;;;;4.75;3.90;;;11.50;73.90;;;;;;5035700;28;20029;-60
2023/04/17 02:46:53;;;;;;;6.90;4.15;;;11.50;73.90;;;;;;5026657;28;20045;-59
2023/04/17 02:49:19;;;;;;;4.70;3.85;;;11.50;74.00;;;;;;5025344;28;20038;-59
2023/04/17 02:51:45;;;;;;;5.13;4.28;;;11.50;74.10;;;;;;5022659;28;20026;-62
2023/04/17 02:54:10;;;;;;;6.05;4.18;;;11.40;73.90;;;;;;5031918;28;20022;-60
2023/04/17 02:56:37;;;;;;;4.40;3.78;;;11.50;73.80;;;;;;5029633;28;20022;-61
2023/04/17 02:59:02;;;;;;;5.07;4.13;;;11.40;73.70;;;;;;5026259;28;20048;-60
2023/04/17 03:01:28;;;;;;;4.72;4.00;;;11.40;73.70;;;;;;5024422;28;20034;-61
2023/04/17 03:03:54;;;;;;;5.25;4.15;;;11.30;73.70;;;;;;5033480;28;20026;-61
2023/04/17 03:06:20;;;;;;;4.85;4.25;;;11.30;73.80;;;;;;5034719;28;20070;-60
2023/04/17 03:08:46;;;;;;;5.43;3.97;;;11.30;73.90;;;;;;5032092;28;20029;-61
2023/04/17 03:11:12;;;;;;;4.80;4.30;;;11.30;73.90;;;;;;5023053;28;20089;-60
2023/04/17 03:13:38;;;;;;;8.00;4.45;;;11.20;73.90;;;;;;5028388;28;20021;-61
2023/04/17 03:16:04;;;;;;;5.07;3.88;;;11.20;74.00;;;;;;5029601;28;20036;-59
2023/04/17 03:18:30;;;;;;;4.78;4.22;;;11.20;74.00;;;;;;5031650;28;20373;-61
2023/04/17 03:20:57;;;;;;;4.72;3.67;;;11.20;73.80;;;;;;5033554;28;20056;-61
2023/04/17 03:23:22;;;;;;;5.07;4.18;;;11.10;74.00;;;;;;5030774;28;20049;-61
2023/04/17 03:25:49;;;;;;;4.95;4.10;;;11.10;73.90;;;;;;5023719;28;20030;-60
2023/04/17 03:28:15;;;;;;;5.30;3.97;;;11.10;74.10;;;;;;5035457;28;20041;-61
2023/04/17 03:30:40;;;;;;;3.95;3.53;;;11.10;74.30;;;;;;5029945;28;20029;-59
2023/04/17 03:33:06;;;;;;;3.90;3.47;;;11.10;74.40;;;;;;5028800;28;20521;-60
2023/04/17 03:35:32;;;;;;;4.80;3.50;;;11.10;74.50;;;;;;5032389;28;20030;-61
2023/04/17 03:37:57;;;;;;;4.82;3.55;;;11.10;74.70;;;;;;5030071;28;20057;-61
2023/04/17 03:40:23;;;;;;;4.18;3.75;;;11.10;74.60;;;;;;5027344;28;20057;-59
2023/04/17 03:42:49;;;;;;;4.20;3.53;;;11.10;74.70;;;;;;5028646;28;20032;-61
2023/04/17 03:45:15;;;;;;;4.28;3.88;;;11.10;74.70;;;;;;5029280;28;20030;-60
2023/04/17 03:47:41;;;;;;;7.45;4.03;;;11.10;74.70;;;;;;5030360;28;20029;-60
2023/04/17 03:50:07;;;;;;;6.07;4.07;;;11.10;74.60;;;;;;5043858;28;20511;-61
2023/04/17 03:52:33;;;;;;;4.30;3.90;;;11.10;74.60;;;;;;5046662;28;20022;-60
2023/04/17 03:54:58;;;;;;;4.85;4.07;;;11.10;74.50;;;;;;5021683;28;20117;-61
2023/04/17 03:57:25;;;;;;;4.03;3.63;;;11.10;74.50;;;;;;5024941;28;20033;-60
2023/04/17 03:59:51;;;;;;;4.18;3.78;;;11.10;74.60;;;;;;5026780;28;20057;-61
2023/04/17 04:02:16;;;;;;;4.82;4.00;;;11.10;74.60;;;;;;5029554;28;20033;-60
2023/04/17 04:04:42;;;;;;;5.18;3.72;;;11.10;74.70;;;;;;5025168;28;20094;-60
2023/04/17 04:07:07;;;;;;;4.82;3.90;;;11.10;74.70;;;;;;5027969;28;20025;-62
2023/04/17 04:09:33;;;;;;;4.10;3.70;;;11.10;74.60;;;;;;5028138;28;20041;-61
2023/04/17 04:11:59;;;;;;;4.82;4.05;;;11.10;74.70;;;;;;5026476;28;20085;-61
2023/04/17 04:14:24;;;;;;;4.75;4.07;;;11.20;74.70;;;;;;5028328;28;20034;-60
2023/04/17 04:16:50;;;;;;;4.43;3.63;;;11.10;74.70;;;;;;5030415;28;20030;-61
2023/04/17 04:19:16;;;;;;;5.32;3.72;;;11.20;74.70;;;;;;5046792;28;20041;-60
2023/04/17 04:21:42;;;;;;;4.55;3.60;;;11.20;74.70;;;;;;5025649;28;20022;-60
2023/04/17 04:24:09;;;;;;;5.88;4.00;;;11.20;74.70;;;;;;5021755;28;20046;-60
2023/04/17 04:26:35;;;;;;;5.50;4.13;;;11.20;74.70;;;;;;5024508;28;20030;-60
2023/04/17 04:29:01;;;;;;;4.82;4.10;;;11.20;74.60;;;;;;5029212;28;20397;-60
2023/04/17 04:31:29;;;;;;;4.70;3.88;;;11.20;74.60;;;;;;5024631;28;20438;-61
2023/04/17 04:34:00;;;;;;;6.95;5.53;;;11.20;74.60;;;;;;5026081;28;20018;-59
2023/04/17 04:36:28;;;;;;;5.85;4.72;;;11.20;74.60;;;;;;5025600;28;20050;-60
2023/04/17 04:38:58;;;;;;;5.57;4.63;;;11.20;74.50;;;;;;5015758;28;20022;-60
2023/04/17 04:41:25;;;;;;;5.70;4.40;;;11.20;74.50;;;;;;5024957;28;20022;-60
2023/04/17 04:43:53;;;;;;;5.78;4.45;;;11.30;74.60;;;;;;5017189;28;20022;-61
2023/04/17 04:46:18;;;;;;;5.80;4.55;;;11.20;74.50;;;;;;5029164;28;20037;-60
2023/04/17 04:48:44;;;;;;;6.40;4.88;;;11.30;74.60;;;;;;5025940;28;20044;-61
2023/04/17 04:51:10;;;;;;;5.20;4.70;;;11.30;74.60;;;;;;5031199;28;20026;-61
2023/04/17 04:53:35;;;;;;;5.30;4.68;;;11.30;74.60;;;;;;5041165;28;20066;-60
2023/04/17 04:56:01;;;;;;;5.25;4.65;;;11.20;74.60;;;;;;5034998;28;20472;-60
2023/04/17 04:58:28;;;;;;;7.40;5.78;;;11.30;74.60;;;;;;5021323;28;20022;-61
2023/04/17 05:00:54;;;;;;;7.60;5.78;;;11.20;74.30;;;;;;5046623;28;20025;-61
2023/04/17 05:03:22;;;;;;;6.47;5.45;;;11.20;74.40;;;;;;5045374;28;20065;-60
2023/04/17 05:05:49;;;;;;;8.07;5.50;;;11.20;74.40;;;;;;5029440;28;20026;-61
2023/04/17 05:08:15;;;;;;;9.48;5.85;;;11.20;74.40;;;;;;5028506;28;20068;-62
2023/04/17 05:10:40;;;;;;;8.07;5.97;;;11.20;74.60;;;;;;5023414;28;20022;-61
2023/04/17 05:13:06;;;;;;;7.97;6.35;;;11.20;74.70;;;;;;5031355;28;20095;-62
2023/04/17 05:15:32;;;;;;;9.07;6.35;;;11.20;74.60;;;;;;5025372;28;20034;-61
2023/04/17 05:17:57;;;;;;;9.38;7.10;;;11.20;74.50;;;;;;5032344;28;20037;-63
2023/04/17 05:20:25;;;;;;;9.35;6.43;;;11.20;74.60;;;;;;5020417;28;20077;-61
2023/04/17 05:22:50;;;;;;;8.10;6.32;;;11.20;74.60;;;;;;5018833;28;20117;-62
2023/04/17 05:25:18;;;;;;;7.63;6.38;;;11.20;74.60;;;;;;5028184;28;20021;-61
2023/04/17 05:27:45;;;;;;;7.47;6.30;;;11.20;74.60;;;;;;5029422;28;20022;-61
2023/04/17 05:30:11;;;;;;;11.38;7.40;;;11.30;74.60;;;;;;5024770;28;20026;-62
2023/04/17 05:32:37;;;;;;;14.57;6.95;;;11.30;74.60;;;;;;5020406;28;20069;-61
2023/04/17 05:35:04;;;;;;;8.90;6.45;;;11.20;74.70;;;;;;5029314;28;20030;-60
2023/04/17 05:37:29;;;;;;;9.32;7.50;;;11.20;74.70;;;;;;5028985;28;20049;-61
2023/04/17 05:39:55;;;;;;;9.52;6.72;;;11.20;74.70;;;;;;5030429;28;20032;-60
2023/04/17 05:42:21;;;;;;;9.38;7.35;;;11.30;74.80;;;;;;5024444;28;20026;-61
2023/04/17 05:44:46;;;;;;;8.45;7.05;;;11.30;74.80;;;;;;5021276;28;20053;-62
2023/04/17 05:47:12;;;;;;;11.07;7.13;;;11.30;74.80;;;;;;5029214;28;20085;-61
2023/04/17 05:49:38;;;;;;;8.80;6.95;;;11.30;74.80;;;;;;5022929;28;20046;-61
2023/04/17 05:52:04;;;;;;;10.32;6.90;;;11.30;74.80;;;;;;5033167;28;20084;-60
2023/04/17 05:54:29;;;;;;;9.02;6.82;;;11.30;74.80;;;;;;5023669;28;20106;-62
2023/04/17 05:56:55;;;;;;;9.13;6.85;;;11.30;75.40;;;;;;5028351;28;20134;-62
2023/04/17 05:59:21;;;;;;;9.57;7.05;;;11.30;74.70;;;;;;5020947;28;20025;-61
2023/04/17 06:01:47;;;;;;;8.95;6.78;;;11.30;74.60;;;;;;5025437;28;20097;-61
2023/04/17 06:04:13;;;;;;;8.18;6.53;;;11.30;74.70;;;;;;5027701;28;20025;-64
2023/04/17 06:06:39;;;;;;;9.13;6.82;;;11.40;74.80;;;;;;5030488;28;20039;-63
2023/04/17 06:09:06;;;;;;;8.45;6.70;;;11.40;74.90;;;;;;5026461;28;20131;-63
2023/04/17 06:11:32;;;;;;;8.18;6.80;;;11.40;74.90;;;;;;5026804;28;20449;-63
2023/04/17 06:13:58;;;;;;;9.43;7.00;;;11.40;74.80;;;;;;5021363;28;20030;-64
2023/04/17 06:16:23;;;;;;;10.77;6.38;;;11.40;74.70;;;;;;5026543;28;20053;-63
2023/04/17 06:18:49;;;;;;;7.30;6.07;;;11.50;74.80;;;;;;5028872;28;20030;-63
2023/04/17 06:21:15;;;;;;;8.07;6.50;;;11.50;74.60;;;;;;5058405;28;20029;-64
2023/04/17 06:23:41;;;;;;;8.50;6.40;;;11.50;74.60;;;;;;5023537;28;20029;-63
2023/04/17 06:26:06;;;;;;;7.72;6.28;;;11.50;74.40;;;;;;5024808;28;20081;-63
2023/04/17 06:28:32;;;;;;;8.68;6.53;;;11.50;74.20;;;;;;5029129;28;20061;-63
2023/04/17 06:30:58;;;;;;;10.25;6.78;;;11.60;73.90;;;;;;5026618;28;20053;-63
2023/04/17 06:33:24;;;;;;;9.50;6.95;;;11.60;73.90;;;;;;5025373;28;20033;-64
2023/04/17 06:35:49;;;;;;;7.75;6.05;;;11.60;73.70;;;;;;5029094;28;20026;-63
2023/04/17 06:38:15;;;;;;;10.68;6.22;;;11.60;73.70;;;;;;5024977;28;20038;-65
2023/04/17 06:40:41;;;;;;;8.77;5.93;;;11.50;73.60;;;;;;4933044;28;20073;-63
2023/04/17 06:43:08;;;;;;;7.32;5.97;;;11.60;73.80;;;;;;5067723;28;20046;-64
2023/04/17 06:45:34;;;;;;;8.85;6.10;;;11.60;73.70;;;;;;5024927;28;20028;-63
2023/04/17 06:47:59;;;;;;;11.27;5.75;;;11.60;73.70;;;;;;5031490;28;20095;-64
2023/04/17 06:50:25;;;;;;;8.35;5.88;;;11.60;73.50;;;;;;5025317;28;20025;-63
2023/04/17 06:52:50;;;;;;;8.68;6.20;;;11.60;73.60;;;;;;5021335;28;20019;-63
2023/04/17 06:55:16;;;;;;;9.73;6.57;;;11.60;73.70;;;;;;5022515;28;20025;-64
2023/04/17 06:57:42;;;;;;;7.95;6.13;;;11.60;73.80;;;;;;5021695;28;20099;-63
2023/04/17 07:00:08;;;;;;;9.98;6.65;;;11.70;73.90;;;;;;5022202;28;20086;-64
2023/04/17 07:02:34;;;;;;;9.00;6.90;;;11.70;74.00;;;;;;5022675;28;20030;-63
2023/04/17 07:05:00;;;;;;;7.70;5.90;;;11.80;74.20;;;;;;5031758;28;20017;-64
2023/04/17 07:07:26;;;;;;;8.82;5.93;;;11.80;74.20;;;;;;5029197;28;20022;-63
2023/04/17 07:09:52;;;;;;;12.25;6.78;;;11.90;74.20;;;;;;5026458;28;20030;-64
2023/04/17 07:12:18;;;;;;;9.70;6.05;;;12.00;73.90;;;;;;5047526;28;20050;-64
2023/04/17 07:14:43;;;;;;;13.65;5.75;;;12.00;73.70;;;;;;5033689;28;20561;-63
2023/04/17 07:17:09;;;;;;;6.85;5.82;;;12.10;73.80;;;;;;5047866;28;20063;-64
2023/04/17 07:19:36;;;;;;;8.35;5.70;;;12.10;73.70;;;;;;5030968;28;20080;-64
2023/04/17 07:22:04;;;;;;;7.90;5.47;;;12.20;73.60;;;;;;5030798;28;20805;-65
2023/04/17 07:24:33;;;;;;;7.90;5.22;;;12.30;73.40;;;;;;5019091;28;20054;-63
2023/04/17 07:27:00;;;;;;;8.20;5.60;;;12.30;72.90;;;;;;5021953;28;20030;-64
2023/04/17 07:29:26;;;;;;;8.70;6.20;;;12.40;72.50;;;;;;5027620;28;20073;-63
2023/04/17 07:31:52;;;;;;;6.80;5.30;;;12.40;72.40;;;;;;5041367;28;20026;-63
2023/04/17 07:34:17;;;;;;;7.95;5.60;;;12.40;72.30;;;;;;5018052;28;20026;-64
2023/04/17 07:36:43;;;;;;;8.93;5.55;;;12.40;72.10;;;;;;5024328;28;20057;-64
2023/04/17 07:39:09;;;;;;;8.32;6.28;;;12.40;72.20;;;;;;5034210;28;20014;-62
2023/04/17 07:41:35;;;;;;;7.22;5.55;;;12.40;72.10;;;;;;4980792;28;20068;-64
2023/04/17 07:44:02;;;;;;;7.35;5.63;;;12.40;72.10;;;;;;5027780;28;20373;-64
2023/04/17 07:46:28;;;;;;;7.30;5.65;;;12.40;72.20;;;;;;5022509;28;20033;-64
2023/04/17 07:48:53;;;;;;;8.85;6.35;;;12.40;72.20;;;;;;5039329;28;20030;-64
2023/04/17 07:51:19;;;;;;;8.27;6.30;;;12.40;72.30;;;;;;5021772;28;20426;-62
2023/04/17 07:53:45;;;;;;;7.30;5.60;;;12.40;72.40;;;;;;5024752;28;20543;-64
2023/04/17 07:56:11;;;;;;;8.30;5.55;;;12.40;72.30;;;;;;5026054;28;20026;-63
2023/04/17 07:58:37;;;;;;;8.02;5.47;;;12.50;73.00;;;;;;5027482;28;20020;-63
2023/04/17 08:01:06;;;;;;;7.80;5.25;;;12.50;72.20;;;;;;5024860;28;20112;-64
2023/04/17 08:03:32;;;;;;;5.93;4.88;;;12.50;71.90;;;;;;5023089;28;20022;-64
2023/04/17 08:05:58;;;;;;;6.97;4.93;;;12.60;71.60;;;;;;5040552;28;20366;-64
2023/04/17 08:08:24;;;;;;;6.00;4.97;;;12.60;71.30;;;;;;5020794;28;20112;-63
2023/04/17 08:10:50;;;;;;;6.90;5.03;;;12.60;71.30;;;;;;5035386;28;20034;-64
2023/04/17 08:13:16;;;;;;;6.20;4.75;;;12.60;71.10;;;;;;5029488;28;20036;-63
2023/04/17 08:15:42;;;;;;;7.28;4.57;;;12.60;71.30;;;;;;5024663;28;20040;-63
2023/04/17 08:18:10;;;;;;;5.38;4.30;;;12.60;71.50;;;;;;5021352;28;20048;-63
2023/04/17 08:20:36;;;;;;;6.20;4.60;;;12.70;71.70;;;;;;5019843;28;20034;-63
2023/04/17 08:23:03;;;;;;;5.50;4.85;;;12.70;71.40;;;;;;5025968;28;20033;-63
2023/04/17 08:25:29;;;;;;;5.65;4.43;;;12.70;70.90;;;;;;5033860;28;20037;-63
2023/04/17 08:27:55;;;;;;;5.82;4.82;;;12.70;71.00;;;;;;5029395;28;20471;-64
2023/04/17 08:30:21;;;;;;;4.70;4.10;;;12.80;70.80;;;;;;5020687;28;20030;-65
2023/04/17 08:32:49;;;;;;;5.00;4.40;;;12.80;70.90;;;;;;5024931;28;20048;-63
2023/04/17 08:35:16;;;;;;;6.28;4.40;;;12.80;70.80;;;;;;5022598;28;20374;-63
2023/04/17 08:37:43;;;;;;;4.93;4.25;;;12.80;70.50;;;;;;5039885;28;20046;-64
2023/04/17 08:40:11;;;;;;;6.40;4.15;;;12.90;70.60;;;;;;5036714;28;20033;-63
2023/04/17 08:42:37;;;;;;;6.90;4.13;;;12.90;70.80;;;;;;5024543;28;20026;-64
2023/04/17 08:45:09;;;;;;;4.10;3.45;;;13.00;70.70;;;;;;5028060;28;20064;-63
2023/04/17 08:47:39;;;;;;;5.20;3.60;;;13.00;70.30;;;;;;5029445;28;20024;-63
2023/04/17 08:50:09;;;;;;;6.75;3.75;;;13.10;70.10;;;;;;5035741;28;20094;-64
2023/04/17 08:52:41;;;;;;;6.57;4.57;;;13.10;70.00;;;;;;5019245;28;20026;-63
2023/04/17 08:55:08;;;;;;;7.70;3.95;;;13.20;70.00;;;;;;5027354;28;20557;-65
2023/04/17 08:57:35;;;;;;;4.93;4.07;;;13.20;70.10;;;;;;5028275;28;20096;-62
2023/04/17 09:00:10;;;;;;;7.70;3.80;;;13.30;70.00;;;;;;5033790;28;20030;-63
2023/04/17 09:02:51;;;;;;;5.20;3.88;;;13.30;69.80;;;;;;5030045;28;20029;-63
2023/04/17 09:05:21;;;;;;;4.13;3.65;;;13.30;69.60;;;;;;5025417;28;21044;-63
2023/04/17 09:07:49;;;;;;;5.22;3.80;;;13.40;69.80;;;;;;5021488;28;20043;-64
2023/04/17 09:10:15;;;;;;;4.50;3.80;;;13.50;69.50;;;;;;5032187;28;20534;-64
2023/04/17 09:12:58;;;;;;;5.38;4.03;;;13.60;69.00;;;;;;5024226;28;20034;-63
2023/04/17 09:15:24;;;;;;;9.85;3.50;;;13.60;68.50;;;;;;5026365;28;20017;-64
2023/04/17 09:17:50;;;;;;;4.72;3.65;;;13.70;68.60;;;;;;5024227;28;20492;-63
2023/04/17 09:20:16;;;;;;;6.05;3.67;;;13.70;68.70;;;;;;5038125;28;20036;-64
2023/04/17 09:22:42;;;;;;;6.43;3.42;;;13.80;68.80;;;;;;5024212;28;20029;-65
2023/04/17 09:25:18;;;;;;;3.22;2.92;;;13.90;68.70;;;;;;5048508;28;20036;-64
2023/04/17 09:27:45;;;;;;;6.80;3.40;;;14.00;67.80;;;;;;5046843;28;20580;-64
2023/04/17 09:30:12;;;;;;;3.90;3.30;;;14.00;68.00;;;;;;5023225;28;20033;-64
2023/04/17 09:32:39;;;;;;;3.72;3.30;;;14.10;67.70;;;;;;5026311;28;20024;-63
2023/04/17 09:35:05;;;;;;;3.75;3.40;;;14.20;67.50;;;;;;5031292;28;20500;-64
2023/04/17 09:37:53;;;;;;;4.05;3.33;;;14.20;67.10;;;;;;5030634;28;20061;-64
2023/04/17 09:40:21;;;;;;;4.22;3.40;;;14.30;66.20;;;;;;5024948;28;20105;-65
2023/04/17 09:43:01;;;;;;;3.83;3.42;;;14.40;66.90;;;;;;5031135;28;20025;-65
2023/04/17 09:45:34;;;;;;;5.60;3.10;;;14.40;65.70;;;;;;5023720;28;20029;-65
2023/04/17 09:48:01;;;;;;;4.20;3.28;;;14.50;66.50;;;;;;5027242;28;20080;-66
2023/04/17 09:50:27;;;;;;;3.90;3.40;;;14.60;66.40;;;;;;5043343;28;20068;-64
2023/04/17 09:52:54;;;;;;;4.00;3.25;;;14.60;66.30;;;;;;5023745;28;20149;-65
2023/04/17 09:55:23;;;;;;;4.07;2.88;;;14.70;66.20;;;;;;5040462;28;20027;-65
2023/04/17 09:57:57;;;;;;;4.03;3.40;;;14.70;65.80;;;;;;5034981;28;20043;-65
2023/04/17 10:00:26;;;;;;;4.30;3.40;;;14.80;64.60;;;;;;5029555;28;20090;-64
2023/04/17 10:02:53;;;;;;;5.70;3.13;;;14.80;65.20;;;;;;5022293;28;20030;-64
2023/04/17 10:05:23;;;;;;;4.38;3.60;;;14.90;65.30;;;;;;5028131;28;20025;-63
2023/04/17 10:07:49;;;;;;;4.40;3.65;;;14.90;65.00;;;;;;5026308;28;20034;-64
2023/04/17 10:10:32;;;;;;;6.45;4.30;;;15.00;64.60;;;;;;5032866;28;20042;-63
2023/04/17 10:13:04;;;;;;;3.72;3.10;;;15.00;63.60;;;;;;5028062;28;20094;-64
2023/04/17 10:15:31;;;;;;;3.95;3.40;;;15.00;64.10;;;;;;5033401;28;20021;-65
2023/04/17 10:18:22;;;;;;;4.53;3.20;;;15.00;64.50;;;;;;5022297;28;20034;-64
2023/04/17 10:20:52;;;;;;;3.50;3.20;;;15.00;63.20;;;;;;5026041;28;20061;-64
2023/04/17 10:23:44;;;;;;;3.83;3.33;;;15.00;65.00;;;;;;5027166;28;20036;-65
2023/04/17 10:26:26;;;;;;;3.40;3.00;;;15.10;63.40;;;;;;5027658;28;20062;-66
2023/04/17 10:28:53;;;;;;;4.22;3.72;;;15.10;64.00;;;;;;5021978;28;20023;-63
2023/04/17 10:31:19;;;;;;;4.00;3.55;;;15.20;64.50;;;;;;5038707;28;20034;-63
2023/04/17 10:34:03;;;;;;;4.10;3.65;;;15.30;63.70;;;;;;5035631;28;20033;-65
2023/04/17 10:36:38;;;;;;;3.77;3.37;;;15.30;62.40;;;;;;5063154;28;20050;-64
2023/04/17 10:39:17;;;;;;;4.93;3.30;;;15.30;63.10;;;;;;5026578;28;21477;-64
2023/04/17 10:42:05;;;;;;;3.50;3.10;;;15.40;62.90;;;;;;5025729;28;20030;-64
2023/04/17 10:44:40;;;;;;;3.35;3.00;;;15.50;62.20;;;;;;5030119;28;20021;-64
2023/04/17 10:47:09;;;;;;;3.28;2.85;;;15.60;62.70;;;;;;5017450;28;20032;-65
2023/04/17 10:49:52;;;;;;;4.05;3.22;;;15.60;62.40;;;;;;5026657;28;20038;-63
2023/04/17 10:52:39;;;;;;;4.00;3.47;;;15.60;61.30;;;;;;5021954;28;20092;-64
2023/04/17 10:55:16;;;;;;;3.35;2.83;;;15.60;60.90;;;;;;5021576;28;20042;-64
2023/04/17 10:57:50;;;;;;;3.40;3.05;;;15.60;61.60;;;;;;5027164;28;20053;-64
2023/04/17 11:00:17;;;;;;;3.72;3.10;;;15.60;61.10;;;;;;5024958;28;20026;-65
2023/04/17 11:02:49;;;;;;;5.13;3.55;;;15.60;61.90;;;;;;5063869;28;20033;-64
2023/04/17 11:05:19;;;;;;;3.88;3.47;;;15.60;62.10;;;;;;5020435;28;20037;-63
2023/04/17 11:07:49;;;;;;;3.75;3.00;;;15.60;62.10;;;;;;5032772;28;20025;-64
2023/04/17 11:10:19;;;;;;;4.30;3.20;;;15.70;62.00;;;;;;5029965;28;20022;-63
2023/04/17 11:12:56;;;;;;;3.72;3.33;;;15.80;62.10;;;;;;5044740;28;20099;-64
2023/04/17 11:15:30;;;;;;;5.13;3.22;;;15.90;61.80;;;;;;5018121;28;20110;-64
2023/04/17 11:17:57;;;;;;;3.47;2.67;;;16.00;61.60;;;;;;5062226;28;20040;-65
2023/04/17 11:20:24;;;;;;;3.95;2.67;;;16.10;61.80;;;;;;5025797;28;20017;-63
2023/04/17 11:22:50;;;;;;;3.72;3.05;;;16.30;61.40;;;;;;5025946;28;20033;-64
2023/04/17 11:25:30;;;;;;;6.63;3.50;;;16.40;61.90;;;;;;5025005;28;20029;-65
2023/04/17 11:28:01;;;;;;;4.03;2.83;;;16.50;60.90;;;;;;5026359;28;20029;-65
2023/04/17 11:30:32;;;;;;;4.18;3.55;;;16.60;60.40;;;;;;5051938;28;20034;-64
2023/04/17 11:33:02;;;;;;;3.83;2.92;;;16.80;60.20;;;;;;5030141;28;20041;-63
2023/04/17 11:35:33;;;;;;;4.22;3.15;;;16.90;60.10;;;;;;5017195;28;20089;-64
2023/04/17 11:38:08;;;;;;;4.25;3.10;;;17.10;59.70;;;;;;5028579;28;20120;-65
2023/04/17 11:40:33;;;;;;;2.83;2.47;;;17.20;59.50;;;;;;5025003;28;20026;-63
2023/04/17 11:43:06;;;;;;;4.32;2.70;;;17.40;59.60;;;;;;5026206;28;20034;-65
2023/04/17 11:45:33;;;;;;;3.40;2.60;;;17.50;58.10;;;;;;5047392;28;20017;-64
2023/04/17 11:48:01;;;;;;;2.58;2.33;;;17.50;58.30;;;;;;5028483;28;20022;-63
2023/04/17 11:50:31;;;;;;;2.58;2.38;;;17.50;57.30;;;;;;5022459;28;20106;-65
2023/04/17 11:52:59;;;;;;;2.92;2.55;;;17.60;56.10;;;;;;5022244;28;20037;-63
2023/04/17 11:55:29;;;;;;;2.72;2.53;;;17.50;56.40;;;;;;5024220;28;20026;-64
2023/04/17 11:57:59;;;;;;;2.92;2.38;;;17.60;57.40;;;;;;5026699;28;20587;-64
2023/04/17 12:00:28;;;;;;;2.70;2.50;;;17.60;57.90;;;;;;5028668;28;20053;-64
2023/04/17 12:02:59;;;;;;;3.33;2.55;;;17.80;58.40;;;;;;5025246;28;20021;-64
2023/04/17 12:05:25;;;;;;;4.25;2.28;;;17.90;56.80;;;;;;5021435;28;20053;-64
2023/04/17 12:08:03;;;;;;;2.75;2.20;;;18.00;55.60;;;;;;5044489;28;20081;-64
2023/04/17 12:10:40;;;;;;;2.95;2.13;;;18.10;55.10;;;;;;5021838;28;20041;-64
2023/04/17 12:13:06;;;;;;;3.30;2.35;;;18.10;55.30;;;;;;5016888;28;20556;-64
2023/04/17 12:15:32;;;;;;;3.97;2.60;;;18.10;56.10;;;;;;5023805;28;20081;-63
2023/04/17 12:17:58;;;;;;;4.95;2.72;;;18.00;55.90;;;;;;5030324;28;20029;-63
2023/04/17 12:20:24;;;;;;;6.57;2.88;;;18.00;55.80;;;;;;5027808;28;20026;-63
2023/04/17 12:22:49;;;;;;;3.17;2.63;;;17.90;55.60;;;;;;5042799;28;20059;-64
2023/04/17 12:25:15;;;;;;;3.00;2.70;;;17.80;56.10;;;;;;5036673;28;20088;-63
2023/04/17 12:27:40;;;;;;;2.95;2.60;;;17.70;55.80;;;;;;5023208;28;20038;-63
2023/04/17 12:30:07;;;;;;;1.33;1.20;;;17.60;56.30;;;;;;5024681;28;20045;-63
2023/04/17 12:32:32;;;;;;;0.80;0.80;;;17.50;55.80;;;;;;5029283;28;20041;-63
2023/04/17 12:34:58;;;;;;;0.95;0.90;;;17.30;55.20;;;;;;5020995;28;20037;-63
2023/04/17 12:37:24;;;;;;;1.48;0.90;;;17.10;54.50;;;;;;5019779;28;20050;-64
2023/04/17 12:39:50;;;;;;;1.88;0.80;;;16.80;54.50;;;;;;5026626;28;20017;-64
2023/04/17 12:42:15;;;;;;;1.00;0.90;;;16.50;55.30;;;;;;4959079;28;20029;-64
2023/04/17 12:44:41;;;;;;;1.45;1.10;;;16.20;55.80;;;;;;5017301;28;20026;-64
2023/04/17 12:47:06;;;;;;;1.20;1.10;;;16.00;56.20;;;;;;5054096;28;20041;-66